Time;durP1;ratioP1;P1;durP2;ratioP2;P2;SDS_P1;SDS_P2;PMS_P1;PMS_P2;Temp;Humidity;BMP_temperature;BMP_pressure;BME280_temperature;BME280_humidity;BME280_pressure;Samples;Min_cycle;Max_cycle;Signal;HPM_P1;HPM_P2
2022/04/04 00:01:52;;;;;;;9.73;5.95;;;0.50;99.90;;;;;;4937024;29;20034;-81
2022/04/04 00:04:18;;;;;;;11.00;5.80;;;0.40;99.90;;;;;;4953468;29;20045;-81
2022/04/04 00:06:44;;;;;;;8.65;5.43;;;0.40;99.90;;;;;;4946649;29;20336;-79
2022/04/04 00:09:10;;;;;;;10.02;6.13;;;0.40;99.90;;;;;;4929620;29;20365;-79
2022/04/04 00:11:36;;;;;;;11.25;6.25;;;0.60;99.90;;;;;;4938429;29;20035;-79
2022/04/04 00:14:03;;;;;;;9.25;5.32;;;0.30;99.90;;;;;;4932751;29;20055;-79
2022/04/04 00:16:28;;;;;;;11.30;5.88;;;0.30;99.90;;;;;;4929073;29;20057;-77
2022/04/04 00:18:54;;;;;;;9.40;5.47;;;0.30;99.90;;;;;;4930041;29;20491;-79
2022/04/04 00:21:37;;;;;;;11.90;6.97;;;0.30;99.90;;;;;;4945066;29;20048;-78
2022/04/04 00:24:04;;;;;;;9.45;5.00;;;0.30;99.90;;;;;;4945376;29;20508;-78
2022/04/04 00:26:30;;;;;;;8.55;5.07;;;0.30;99.90;;;;;;4942788;29;20048;-79
2022/04/04 00:28:56;;;;;;;8.73;6.03;;;0.20;99.90;;;;;;4946540;29;20038;-79
2022/04/04 00:31:22;;;;;;;9.27;5.60;;;0.20;99.90;;;;;;4933708;29;20031;-80
2022/04/04 00:33:50;;;;;;;10.63;6.13;;;0.20;99.90;;;;;;4938523;29;20060;-79
2022/04/04 00:36:16;;;;;;;6.90;4.70;;;0.20;99.90;;;;;;4938891;29;20043;-79
2022/04/04 00:38:41;;;;;;;11.57;5.63;;;0.20;99.90;;;;;;4929061;29;20551;-79
2022/04/04 00:41:15;;;;;;;11.00;5.88;;;0.20;99.90;;;;;;4913139;29;20043;-79
2022/04/04 00:43:41;;;;;;;11.65;6.18;;;0.20;99.90;;;;;;4913938;29;20369;-77
2022/04/04 00:46:08;;;;;;;10.98;6.45;;;0.30;99.90;;;;;;4928842;29;20576;-77
2022/04/04 00:48:34;;;;;;;8.00;5.25;;;0.10;99.90;;;;;;4929552;29;20027;-78
2022/04/04 00:51:01;;;;;;;12.18;7.13;;;0.20;99.90;;;;;;4926026;29;20054;-76
2022/04/04 00:53:28;;;;;;;13.95;6.45;;;0.20;99.90;;;;;;4910741;29;20028;-77
2022/04/04 00:55:54;;;;;;;10.88;6.05;;;0.20;99.90;;;;;;4941638;29;20181;-77
2022/04/04 00:58:21;;;;;;;15.50;6.82;;;0.20;99.90;;;;;;4928914;29;20031;-77
2022/04/04 01:00:48;;;;;;;11.18;5.75;;;0.20;99.90;;;;;;4929934;29;20496;-77
2022/04/04 01:03:17;;;;;;;8.43;5.55;;;0.10;99.90;;;;;;4928405;29;20032;-77
2022/04/04 01:05:46;;;;;;;;;;;0.10;99.90;;;;;;4929798;29;20031;-78
2022/04/04 01:08:15;;;;;;;9.82;5.75;;;0.10;99.90;;;;;;4931887;29;19906;-76
2022/04/04 01:10:42;;;;;;;13.35;6.30;;;-0.60;99.90;;;;;;4932697;29;20031;-77
2022/04/04 01:13:10;;;;;;;11.68;5.40;;;0.10;99.90;;;;;;4932412;29;20417;-76
2022/04/04 01:15:36;;;;;;;10.02;6.13;;;0.00;99.90;;;;;;4932644;29;20145;-77
2022/04/04 01:18:04;;;;;;;14.23;6.85;;;0.10;99.90;;;;;;4933095;29;20106;-77
2022/04/04 01:20:30;;;;;;;13.27;6.65;;;0.10;99.90;;;;;;4933578;29;20035;-78
2022/04/04 01:22:56;;;;;;;11.52;5.97;;;0.10;99.90;;;;;;4932219;29;20028;-78
2022/04/04 01:25:24;;;;;;;13.20;6.97;;;0.10;99.90;;;;;;4933524;29;20127;-77
2022/04/04 01:27:50;;;;;;;12.60;5.85;;;0.20;99.90;;;;;;4932202;29;20039;-77
2022/04/04 01:30:16;;;;;;;10.27;6.38;;;0.10;99.90;;;;;;4932876;29;20032;-77
2022/04/04 01:32:42;;;;;;;11.88;6.82;;;0.10;99.90;;;;;;4933999;29;20101;-76
2022/04/04 01:35:09;;;;;;;15.10;6.88;;;0.00;99.90;;;;;;4933422;29;20041;-77
2022/04/04 01:37:35;;;;;;;15.55;6.35;;;-0.10;99.90;;;;;;4936461;29;20059;-77
2022/04/04 01:40:01;;;;;;;10.57;6.72;;;0.10;99.90;;;;;;4933458;29;20034;-76
2022/04/04 01:42:27;;;;;;;11.88;6.95;;;-0.20;99.90;;;;;;4934200;29;20505;-76
2022/04/04 01:44:53;;;;;;;12.38;6.18;;;-0.30;99.90;;;;;;4931336;29;20028;-76
2022/04/04 01:47:18;;;;;;;10.70;6.72;;;-0.10;99.90;;;;;;4928551;29;20508;-76
2022/04/04 01:49:44;;;;;;;11.82;6.22;;;-0.50;99.90;;;;;;4930696;29;20059;-76
2022/04/04 01:52:10;;;;;;;14.18;6.28;;;-0.30;99.90;;;;;;4930230;29;20032;-76
2022/04/04 01:54:35;;;;;;;10.48;5.97;;;-0.30;99.90;;;;;;4930974;29;20071;-77
2022/04/04 01:57:01;;;;;;;9.68;6.20;;;-0.60;99.90;;;;;;4928929;29;20024;-76
2022/04/04 01:59:27;;;;;;;14.02;6.72;;;0.40;99.90;;;;;;4929273;29;20032;-76
2022/04/04 02:01:52;;;;;;;14.25;6.90;;;-0.20;99.90;;;;;;4928615;29;20039;-77
2022/04/04 02:04:18;;;;;;;13.95;7.18;;;-0.80;99.90;;;;;;4928925;29;20881;-77
2022/04/04 02:06:44;;;;;;;10.95;6.75;;;-2.50;99.90;;;;;;4929385;29;20024;-75
2022/04/04 02:09:10;;;;;;;12.20;6.38;;;-0.80;99.90;;;;;;4929141;29;20047;-76
2022/04/04 02:11:36;;;;;;;14.82;7.10;;;-0.10;99.90;;;;;;4930436;29;20062;-76
2022/04/04 02:14:03;;;;;;;11.88;6.57;;;-0.80;99.90;;;;;;4917481;29;20131;-76
2022/04/04 02:16:29;;;;;;;12.23;6.75;;;-0.90;99.90;;;;;;4930775;29;20067;-76
2022/04/04 02:18:54;;;;;;;15.13;6.78;;;-0.20;99.90;;;;;;4931211;29;20047;-76
2022/04/04 02:21:20;;;;;;;14.18;7.22;;;-0.20;99.90;;;;;;4932347;29;20034;-76
2022/04/04 02:23:46;;;;;;;14.55;6.70;;;-0.60;99.90;;;;;;4931371;29;20059;-76
2022/04/04 02:26:12;;;;;;;14.57;6.95;;;-0.40;99.90;;;;;;4931707;29;20110;-77
2022/04/04 02:28:37;;;;;;;12.15;6.75;;;-1.30;99.90;;;;;;4932412;29;20068;-76
2022/04/04 02:31:04;;;;;;;15.48;6.82;;;-1.30;99.90;;;;;;4932222;29;20618;-77
2022/04/04 02:33:30;;;;;;;11.70;7.07;;;-0.40;99.90;;;;;;4931511;29;20036;-76
2022/04/04 02:35:56;;;;;;;14.63;7.82;;;-1.40;99.90;;;;;;4931449;29;20063;-77
2022/04/04 02:38:24;;;;;;;15.50;8.15;;;-0.70;99.90;;;;;;4930869;29;20466;-77
2022/04/04 02:40:51;;;;;;;13.43;7.47;;;-0.60;99.90;;;;;;4931960;29;20030;-76
2022/04/04 02:43:18;;;;;;;15.18;8.02;;;-0.70;99.90;;;;;;4932021;29;20035;-76
2022/04/04 02:45:44;;;;;;;16.60;7.43;;;-0.70;99.90;;;;;;4932984;29;20105;-77
2022/04/04 02:48:09;;;;;;;13.07;6.93;;;-0.40;99.90;;;;;;4931748;29;20059;-76
2022/04/04 02:50:35;;;;;;;15.55;8.00;;;-0.50;99.90;;;;;;4930628;29;20039;-76
2022/04/04 02:53:01;;;;;;;16.30;7.65;;;-1.80;99.90;;;;;;4930955;29;20039;-76
2022/04/04 02:58:12;;;;;;;16.25;7.55;;;-0.60;99.90;;;;;;4931831;29;20070;-77
2022/04/04 03:00:38;;;;;;;19.52;7.47;;;-2.00;99.90;;;;;;4930372;29;20051;-77
2022/04/04 03:03:03;;;;;;;18.30;8.65;;;-2.00;99.90;;;;;;4932501;29;20099;-77
2022/04/04 03:05:29;;;;;;;14.75;7.80;;;-0.60;99.90;;;;;;4932127;29;20059;-76
2022/04/04 03:07:55;;;;;;;17.05;7.97;;;-2.20;99.90;;;;;;4931556;29;20059;-77
2022/04/04 03:10:21;;;;;;;21.45;7.85;;;-2.20;99.90;;;;;;4931655;29;20438;-77
2022/04/04 03:12:49;;;;;;;15.20;7.45;;;-2.20;99.90;;;;;;4931107;29;20481;-77
2022/04/04 03:15:21;;;;;;;14.38;7.45;;;-2.20;99.90;;;;;;4930620;29;20044;-77
2022/04/04 03:17:51;;;;;;;12.10;7.00;;;-2.20;99.90;;;;;;4931131;29;20027;-77
2022/04/04 03:20:18;;;;;;;15.20;7.38;;;-2.40;99.90;;;;;;4929097;29;20034;-77
2022/04/04 03:22:50;;;;;;;15.73;7.70;;;-2.50;99.90;;;;;;4928284;29;20504;-77
2022/04/04 03:25:17;;;;;;;13.85;8.02;;;-2.30;99.90;;;;;;4930382;29;20027;-77
2022/04/04 03:27:44;;;;;;;15.32;8.45;;;-1.60;99.90;;;;;;4930292;29;20048;-79
2022/04/04 03:30:12;;;;;;;13.88;6.85;;;-2.70;99.90;;;;;;4929849;29;20024;-77
2022/04/04 03:32:39;;;;;;;13.75;7.25;;;-2.70;99.90;;;;;;4928180;29;20031;-76
2022/04/04 03:35:06;;;;;;;14.23;7.22;;;-2.90;99.90;;;;;;4929973;29;20517;-77
2022/04/04 03:37:34;;;;;;;13.30;7.80;;;-3.00;99.90;;;;;;4913214;29;20035;-77
2022/04/04 03:39:59;;;;;;;16.33;7.97;;;-3.00;99.90;;;;;;4929762;29;20047;-77
2022/04/04 03:42:25;;;;;;;18.17;8.55;;;-3.20;99.90;;;;;;4929691;29;20024;-77
2022/04/04 03:44:51;;;;;;;15.15;7.60;;;-2.80;99.90;;;;;;4912881;29;20036;-77
2022/04/04 03:47:17;;;;;;;18.55;7.30;;;-3.10;99.90;;;;;;4930090;29;20107;-77
2022/04/04 03:49:42;;;;;;;17.58;7.68;;;-2.20;99.90;;;;;;4912432;29;20126;-77
2022/04/04 03:52:10;;;;;;;14.52;8.95;;;-1.80;99.90;;;;;;4929614;29;20111;-77
2022/04/04 03:54:35;;;;;;;13.70;7.88;;;-2.50;99.90;;;;;;4929772;29;20028;-77
2022/04/04 03:57:02;;;;;;;18.02;9.18;;;-2.20;99.90;;;;;;4930049;29;20078;-77
2022/04/04 03:59:28;;;;;;;13.73;7.80;;;-3.30;99.90;;;;;;4930037;29;20020;-77
2022/04/04 04:01:54;;;;;;;17.27;7.63;;;-3.20;99.90;;;;;;4929585;29;20463;-77
2022/04/04 04:04:20;;;;;;;18.55;8.38;;;-2.10;99.90;;;;;;4929564;29;20098;-77
2022/04/04 04:06:45;;;;;;;14.63;6.75;;;-3.10;99.90;;;;;;4929823;29;20543;-77
2022/04/04 04:09:12;;;;;;;16.15;7.30;;;-1.90;99.90;;;;;;4929621;29;20059;-77
2022/04/04 04:11:37;;;;;;;13.70;8.27;;;-2.90;99.90;;;;;;4912250;29;20135;-77
2022/04/04 04:14:03;;;;;;;18.02;7.65;;;-3.20;99.90;;;;;;4929676;29;20139;-77
2022/04/04 04:16:29;;;;;;;18.20;8.18;;;-3.30;99.90;;;;;;4930262;29;20043;-76
2022/04/04 04:18:55;;;;;;;17.08;8.25;;;-2.70;99.90;;;;;;4912407;29;20071;-77
2022/04/04 04:21:22;;;;;;;15.98;7.93;;;-3.30;99.90;;;;;;4929373;29;20031;-77
2022/04/04 04:23:48;;;;;;;14.60;7.55;;;-3.30;99.90;;;;;;4911619;29;20464;-77
2022/04/04 04:26:14;;;;;;;14.93;7.75;;;-3.40;99.90;;;;;;4929171;29;20031;-77
2022/04/04 04:28:43;;;;;;;17.70;8.07;;;-3.60;99.90;;;;;;4912359;29;20046;-76
2022/04/04 04:31:09;;;;;;;18.17;7.88;;;-3.60;99.90;;;;;;4929258;29;20161;-77
2022/04/04 04:33:34;;;;;;;17.23;8.43;;;-2.90;99.90;;;;;;4929281;29;20170;-76
2022/04/04 04:36:00;;;;;;;16.20;7.07;;;-2.70;99.90;;;;;;4927873;29;20036;-77
2022/04/04 04:38:27;;;;;;;14.45;7.03;;;-3.60;99.90;;;;;;4929419;29;20071;-76
2022/04/04 04:40:53;;;;;;;13.95;7.10;;;-3.70;99.90;;;;;;4930477;29;20059;-76
2022/04/04 04:43:19;;;;;;;14.65;7.07;;;-3.40;99.90;;;;;;4933148;29;20059;-76
2022/04/04 04:45:45;;;;;;;20.90;8.07;;;-3.20;99.90;;;;;;4933268;29;20067;-77
2022/04/04 04:48:11;;;;;;;16.85;7.53;;;-2.50;99.90;;;;;;4933077;29;20023;-76
2022/04/04 04:50:37;;;;;;;16.27;7.95;;;-3.60;99.90;;;;;;4933265;29;20026;-78
2022/04/04 04:53:03;;;;;;;15.23;7.85;;;-2.20;99.90;;;;;;4932658;29;20448;-77
2022/04/04 04:55:30;;;;;;;16.67;7.32;;;-3.70;99.90;;;;;;4932921;29;20040;-76
2022/04/04 04:57:57;;;;;;;17.48;8.73;;;-3.10;99.90;;;;;;4933548;29;20039;-76
2022/04/04 05:00:28;;;;;;;18.15;7.53;;;-3.10;99.90;;;;;;4932643;29;20123;-76
2022/04/04 05:03:39;;;;;;;19.58;8.63;;;-2.80;99.90;;;;;;4933021;29;20481;-78
2022/04/04 05:05:41;;;;;;;19.30;7.65;;;-2.60;99.90;;;;;;4919485;29;20522;-77
2022/04/04 05:08:07;;;;;;;15.38;7.35;;;-3.10;99.90;;;;;;4932667;29;20034;-77
2022/04/04 05:10:33;;;;;;;17.20;8.20;;;-3.70;99.90;;;;;;4933523;29;20055;-77
2022/04/04 05:12:59;;;;;;;19.25;9.43;;;-3.30;99.90;;;;;;4933051;29;20051;-76
2022/04/04 05:15:25;;;;;;;16.95;7.72;;;-3.00;99.90;;;;;;4932471;29;20046;-76
2022/04/04 05:17:52;;;;;;;15.30;7.50;;;-3.40;99.90;;;;;;4933171;29;20051;-76
2022/04/04 05:20:19;;;;;;;17.02;7.75;;;-5.00;99.90;;;;;;4932793;29;20036;-76
2022/04/04 05:22:45;;;;;;;13.40;6.30;;;-2.70;99.90;;;;;;4932403;29;20477;-76
2022/04/04 05:25:11;;;;;;;17.33;7.57;;;-2.80;99.90;;;;;;4933920;29;20122;-76
2022/04/04 05:27:41;;;;;;;15.63;7.82;;;-2.80;99.90;;;;;;4935777;29;20047;-76
2022/04/04 05:30:07;;;;;;;14.40;7.55;;;-3.50;99.90;;;;;;4934979;29;20028;-75
2022/04/04 05:32:34;;;;;;;14.88;8.05;;;-3.50;99.90;;;;;;4936336;29;20024;-75
2022/04/04 05:35:06;;;;;;;14.52;7.18;;;-2.80;99.90;;;;;;4927723;29;20039;-76
2022/04/04 05:37:32;;;;;;;17.08;7.97;;;-3.40;99.90;;;;;;4941535;29;20020;-76
2022/04/04 05:39:58;;;;;;;16.23;8.45;;;-2.60;99.90;;;;;;4923236;29;20115;-76
2022/04/04 05:42:25;;;;;;;18.30;7.40;;;-2.60;99.90;;;;;;4935506;29;20175;-76
2022/04/04 05:44:50;;;;;;;17.08;9.18;;;-3.20;99.90;;;;;;4934291;29;20500;-75
2022/04/04 05:47:19;;;;;;;18.83;8.45;;;-2.60;99.90;;;;;;4935707;29;20068;-76
2022/04/04 05:49:46;;;;;;;12.88;7.60;;;-1.80;99.90;;;;;;4918382;29;20051;-75
2022/04/04 05:52:11;;;;;;;21.10;9.52;;;-3.00;99.90;;;;;;4934971;29;20122;-76
2022/04/04 05:54:53;;;;;;;15.20;7.72;;;-1.90;99.90;;;;;;4934693;29;20060;-75
2022/04/04 05:57:23;;;;;;;15.77;8.23;;;-1.80;99.90;;;;;;4936153;29;20028;-76
2022/04/04 05:59:49;;;;;;;;;;;-2.30;99.90;;;;;;4932006;29;20032;-76
2022/04/04 06:02:16;;;;;;;16.92;7.32;;;-2.20;99.90;;;;;;4932757;29;19922;-76
2022/04/04 06:04:41;;;;;;;16.30;8.35;;;-2.10;99.90;;;;;;4931648;29;20028;-76
2022/04/04 06:07:07;;;;;;;19.30;9.77;;;-2.10;99.90;;;;;;4931930;29;20500;-79
2022/04/04 06:09:33;;;;;;;21.35;9.52;;;-1.80;99.90;;;;;;4931852;29;20036;-76
2022/04/04 06:11:59;;;;;;;16.45;8.70;;;-1.30;99.90;;;;;;4934100;29;20469;-76
2022/04/04 06:14:25;;;;;;;25.38;10.82;;;-0.80;99.90;;;;;;4935253;29;20116;-75
2022/04/04 06:16:50;;;;;;;20.67;11.13;;;-0.50;99.90;;;;;;4933865;29;20055;-76
2022/04/04 06:19:16;;;;;;;26.85;11.02;;;-3.30;99.90;;;;;;4935442;29;20473;-75
2022/04/04 06:21:42;;;;;;;18.95;10.10;;;-1.60;99.90;;;;;;4931758;29;20091;-77
2022/04/04 06:24:08;;;;;;;16.25;9.43;;;-0.60;99.90;;;;;;4914334;29;20023;-78
2022/04/04 06:26:34;;;;;;;19.67;9.10;;;-1.50;99.90;;;;;;4913879;29;20054;-77
2022/04/04 06:28:59;;;;;;;22.42;10.30;;;-0.40;99.90;;;;;;4931633;29;20028;-79
2022/04/04 06:31:25;;;;;;;22.55;10.88;;;-0.50;99.90;;;;;;4931651;29;20031;-79
2022/04/04 06:33:51;;;;;;;20.52;9.77;;;-0.40;99.90;;;;;;4929562;29;20424;-79
2022/04/04 06:36:16;;;;;;;19.92;9.75;;;0.00;99.90;;;;;;4929745;29;20041;-78
2022/04/04 06:38:42;;;;;;;23.40;9.93;;;0.40;99.90;;;;;;4934169;29;20106;-78
2022/04/04 06:41:08;;;;;;;16.45;9.13;;;0.50;99.90;;;;;;4933030;29;20040;-78
2022/04/04 06:43:33;;;;;;;17.60;9.70;;;0.60;99.90;;;;;;4930293;29;20489;-78
2022/04/04 06:46:02;;;;;;;20.75;9.07;;;0.80;99.90;;;;;;4930715;29;20059;-77
2022/04/04 06:48:28;;;;;;;16.37;8.73;;;0.90;99.90;;;;;;4930408;29;20059;-79
2022/04/04 06:50:54;;;;;;;17.15;8.52;;;1.10;99.90;;;;;;4930862;29;20031;-74
2022/04/04 06:53:21;;;;;;;15.10;7.97;;;1.30;99.90;;;;;;4931744;29;20488;-75
2022/04/04 06:55:48;;;;;;;16.92;9.23;;;3.10;99.90;;;;;;4932308;29;20028;-75
2022/04/04 06:58:14;;;;;;;16.35;8.70;;;1.30;99.90;;;;;;4933035;29;20034;-75
2022/04/04 07:00:41;;;;;;;15.77;8.52;;;1.30;99.90;;;;;;4932002;29;20031;-77
2022/04/04 07:03:08;;;;;;;18.65;8.85;;;1.30;99.90;;;;;;4930110;29;20126;-75
2022/04/04 07:05:34;;;;;;;17.05;9.50;;;1.20;99.90;;;;;;4930168;29;20079;-78
2022/04/04 07:08:00;;;;;;;19.17;10.52;;;1.10;99.90;;;;;;4930947;29;20433;-78
2022/04/04 07:10:27;;;;;;;16.88;8.93;;;1.10;99.90;;;;;;4932355;29;20035;-76
2022/04/04 07:12:52;;;;;;;21.83;9.35;;;1.10;99.90;;;;;;4934334;29;20424;-78
2022/04/04 07:15:18;;;;;;;15.20;8.45;;;1.00;99.90;;;;;;4933467;29;20039;-75
2022/04/04 07:17:45;;;;;;;18.83;10.43;;;1.10;99.90;;;;;;4933508;29;20465;-75
2022/04/04 07:20:12;;;;;;;25.58;10.90;;;1.30;99.90;;;;;;4934108;29;20052;-75
2022/04/04 07:22:40;;;;;;;19.63;9.32;;;1.30;99.90;;;;;;4933005;29;20028;-75
2022/04/04 07:25:07;;;;;;;19.45;10.07;;;1.30;99.90;;;;;;4931069;29;20027;-76
2022/04/04 07:27:40;;;;;;;19.98;9.30;;;1.40;99.90;;;;;;4931334;29;20122;-78
2022/04/04 07:30:08;;;;;;;17.17;9.43;;;1.50;99.90;;;;;;4930411;29;20039;-79
2022/04/04 07:32:40;;;;;;;17.25;8.68;;;1.40;99.90;;;;;;4931534;29;20023;-79
2022/04/04 07:35:09;;;;;;;15.13;7.97;;;1.50;99.90;;;;;;4932051;29;20050;-78
2022/04/04 07:37:35;;;;;;;15.80;7.63;;;1.40;99.90;;;;;;4913161;29;20413;-78
2022/04/04 07:40:01;;;;;;;18.48;9.32;;;1.20;99.90;;;;;;4913408;29;20508;-78
2022/04/04 07:42:27;;;;;;;19.55;9.30;;;1.10;99.90;;;;;;4913760;29;20028;-79
2022/04/04 07:44:53;;;;;;;16.27;9.23;;;1.30;99.90;;;;;;4937911;29;20258;-80
2022/04/04 07:47:20;;;;;;;19.10;9.77;;;1.50;99.90;;;;;;4936225;29;20289;-79
2022/04/04 07:49:46;;;;;;;19.75;9.73;;;1.80;99.90;;;;;;4932332;29;20031;-79
2022/04/04 07:52:11;;;;;;;20.05;9.35;;;1.70;99.90;;;;;;4930685;29;20032;-80
2022/04/04 07:54:37;;;;;;;18.60;9.50;;;1.80;99.90;;;;;;4912859;29;20114;-77
2022/04/04 07:57:03;;;;;;;16.05;8.15;;;2.00;99.90;;;;;;4929858;29;20581;-78
2022/04/04 07:59:29;;;;;;;14.98;8.65;;;2.10;99.90;;;;;;4912493;29;20028;-78
2022/04/04 08:01:55;;;;;;;18.90;8.45;;;2.10;99.90;;;;;;4912537;29;20440;-78
2022/04/04 08:04:21;;;;;;;16.08;9.40;;;2.10;99.90;;;;;;4912298;29;20445;-79
2022/04/04 08:06:47;;;;;;;17.17;8.60;;;2.10;99.90;;;;;;4930832;29;20477;-77
2022/04/04 08:09:13;;;;;;;17.98;8.85;;;2.40;99.90;;;;;;4930187;29;20034;-78
2022/04/04 08:11:39;;;;;;;18.95;8.43;;;2.30;99.90;;;;;;4912811;29;20054;-78
2022/04/04 08:14:08;;;;;;;15.95;8.85;;;2.60;99.90;;;;;;4930054;29;20456;-79
2022/04/04 08:16:37;;;;;;;19.23;10.23;;;3.00;99.90;;;;;;4929664;29;20425;-79
2022/04/04 08:19:02;;;;;;;16.13;8.77;;;3.30;99.90;;;;;;4927474;29;20032;-79
2022/04/04 08:21:29;;;;;;;14.63;8.18;;;3.60;99.90;;;;;;4928488;29;20027;-77
2022/04/04 08:23:55;;;;;;;15.10;8.18;;;3.80;99.90;;;;;;4929561;29;20090;-76
2022/04/04 08:26:21;;;;;;;16.75;7.85;;;3.50;99.90;;;;;;4912087;29;20498;-78
2022/04/04 08:28:46;;;;;;;19.88;9.38;;;3.30;99.90;;;;;;4912976;29;20024;-79
2022/04/04 08:31:12;;;;;;;17.88;9.85;;;3.10;99.90;;;;;;4912347;29;20410;-78
2022/04/04 08:33:38;;;;;;;17.70;9.32;;;3.20;99.90;;;;;;4929809;29;20024;-78
2022/04/04 08:36:07;;;;;;;13.65;8.05;;;2.90;99.90;;;;;;4929869;29;20040;-78
2022/04/04 08:38:35;;;;;;;18.70;10.03;;;2.60;99.90;;;;;;4930023;29;20034;-79
2022/04/04 08:41:05;;;;;;;18.75;9.93;;;2.30;99.90;;;;;;4929345;29;20283;-78
2022/04/04 08:43:36;;;;;;;17.13;9.13;;;2.10;99.90;;;;;;4928639;29;20047;-77
2022/04/04 08:46:04;;;;;;;15.43;8.30;;;2.30;99.90;;;;;;4929888;29;20034;-76
2022/04/04 08:48:31;;;;;;;15.57;8.88;;;3.20;99.90;;;;;;4930976;29;20516;-77
2022/04/04 08:50:57;;;;;;;11.95;7.53;;;4.00;99.90;;;;;;4927652;29;20015;-78
2022/04/04 08:53:23;;;;;;;14.75;7.85;;;4.20;99.90;;;;;;4930990;29;20035;-77
2022/04/04 08:55:48;;;;;;;14.02;7.88;;;4.10;99.90;;;;;;4929740;29;20095;-79
2022/04/04 08:58:15;;;;;;;12.30;7.28;;;4.40;99.90;;;;;;4930318;29;20087;-75
2022/04/04 09:00:41;;;;;;;11.85;6.20;;;4.80;99.90;;;;;;4930941;29;20026;-78
2022/04/04 09:03:09;;;;;;;11.77;6.63;;;4.40;99.90;;;;;;4931636;29;20024;-74
2022/04/04 09:05:50;;;;;;;10.23;6.22;;;4.10;99.90;;;;;;4933168;29;20024;-74
2022/04/04 09:08:18;;;;;;;12.48;6.45;;;3.60;99.90;;;;;;4933742;29;20027;-74
2022/04/04 09:10:44;;;;;;;14.32;6.60;;;4.20;99.90;;;;;;4934697;29;20024;-74
2022/04/04 09:13:20;;;;;;;9.00;6.18;;;4.20;99.90;;;;;;4937113;29;20083;-75
2022/04/04 09:15:49;;;;;;;9.60;6.05;;;4.20;99.80;;;;;;4933967;29;20031;-75
2022/04/04 09:18:15;;;;;;;;;;;4.20;96.60;;;;;;4930282;29;20428;-74
2022/04/04 09:20:51;;;;;;;9.60;4.68;;;4.10;99.90;;;;;;4935334;29;19907;-74
2022/04/04 09:23:18;;;;;;;8.27;5.28;;;4.50;96.60;;;;;;4935520;29;20020;-74
2022/04/04 09:25:44;;;;;;;9.63;5.30;;;4.60;92.70;;;;;;4934098;29;20028;-75
2022/04/04 09:28:18;;;;;;;8.82;5.82;;;4.40;93.20;;;;;;4936088;29;20187;-75
2022/04/04 09:31:04;;;;;;;9.90;5.38;;;4.30;91.70;;;;;;4939283;29;20031;-74
2022/04/04 09:33:37;;;;;;;7.97;4.78;;;4.30;93.00;;;;;;4937607;29;20023;-74
2022/04/04 09:36:04;;;;;;;9.80;5.50;;;4.10;90.70;;;;;;4938056;29;20489;-77
2022/04/04 09:38:33;;;;;;;12.50;6.22;;;3.70;92.10;;;;;;4933946;29;20027;-74
2022/04/04 09:41:13;;;;;;;10.20;6.32;;;3.80;92.80;;;;;;4938123;29;20241;-74
2022/04/04 09:43:53;;;;;;;7.70;4.45;;;3.90;94.70;;;;;;4937973;29;20035;-74
2022/04/04 09:46:20;;;;;;;7.68;4.07;;;4.30;92.30;;;;;;4937230;29;20023;-74
2022/04/04 09:49:02;;;;;;;5.13;2.95;;;4.10;85.30;;;;;;4936205;29;20122;-74
2022/04/04 09:51:48;;;;;;;11.02;3.70;;;4.30;86.70;;;;;;4936197;29;20102;-74
2022/04/04 09:54:20;;;;;;;9.43;4.32;;;4.40;87.10;;;;;;4936440;29;20482;-74
2022/04/04 09:56:53;;;;;;;6.15;3.72;;;4.30;80.00;;;;;;4936034;29;20050;-74
2022/04/04 09:59:19;;;;;;;5.95;4.05;;;4.00;82.20;;;;;;4919189;29;20024;-74
2022/04/04 10:01:46;;;;;;;5.88;3.40;;;4.00;85.20;;;;;;4935959;29;20035;-74
2022/04/04 10:04:13;;;;;;;4.47;2.85;;;3.90;80.60;;;;;;4945361;29;20027;-74
2022/04/04 10:06:42;;;;;;;7.43;3.85;;;3.70;82.20;;;;;;4946334;29;20031;-74
2022/04/04 10:09:08;;;;;;;7.00;3.47;;;4.00;82.70;;;;;;4929189;29;20168;-74
2022/04/04 10:11:40;;;;;;;5.35;3.38;;;4.00;84.20;;;;;;4929607;29;20067;-74
2022/04/04 10:14:06;;;;;;;4.43;3.08;;;4.50;79.20;;;;;;4929437;29;20032;-74
2022/04/04 10:16:33;;;;;;;7.65;3.80;;;5.00;76.40;;;;;;4944070;29;20043;-74
2022/04/04 10:18:59;;;;;;;5.97;3.83;;;5.10;77.90;;;;;;4937298;29;20437;-74
2022/04/04 10:21:26;;;;;;;6.70;3.67;;;5.20;79.60;;;;;;4938094;29;20328;-74
2022/04/04 10:24:01;;;;;;;6.35;3.95;;;5.10;81.40;;;;;;4940422;29;20031;-74
2022/04/04 10:26:30;;;;;;;5.75;4.28;;;5.00;80.40;;;;;;4934033;29;20032;-82
2022/04/04 10:29:16;;;;;;;5.38;3.78;;;5.20;81.30;;;;;;4921202;29;20105;-74
2022/04/04 10:31:51;;;;;;;8.07;4.32;;;5.20;77.60;;;;;;4931227;29;20122;-78
2022/04/04 10:34:44;;;;;;;6.60;3.65;;;6.30;80.20;;;;;;4936981;29;20142;-73
2022/04/04 10:37:10;;;;;;;4.65;3.15;;;5.50;76.30;;;;;;4943144;29;20504;-74
2022/04/04 10:39:36;;;;;;;6.85;4.45;;;5.50;78.90;;;;;;4941780;29;20023;-75
2022/04/04 10:42:23;;;;;;;5.95;3.67;;;5.50;74.80;;;;;;4933398;29;20038;-79
2022/04/04 10:44:50;;;;;;;6.95;4.15;;;8.20;77.50;;;;;;4938630;29;20111;-79
2022/04/04 10:47:20;;;;;;;6.40;3.92;;;5.70;75.20;;;;;;4939278;29;20251;-74
2022/04/04 10:49:46;;;;;;;15.68;5.05;;;7.80;78.80;;;;;;4934373;29;20038;-77
2022/04/04 10:52:12;;;;;;;3.22;2.63;;;6.10;77.70;;;;;;4931963;29;20448;-79
2022/04/04 10:54:38;;;;;;;5.85;3.67;;;6.20;71.50;;;;;;4932978;29;20032;-73
2022/04/04 10:57:18;;;;;;;4.97;3.40;;;6.00;72.10;;;;;;4940732;29;20043;-74
2022/04/04 10:59:47;;;;;;;4.90;3.63;;;6.10;73.80;;;;;;4944746;29;20308;-74
2022/04/04 11:02:18;;;;;;;5.15;3.65;;;6.20;71.20;;;;;;4944217;29;20095;-74
2022/04/04 11:07:39;;;;;;;4.88;3.45;;;6.60;71.70;;;;;;4944017;29;20066;-73
2022/04/04 11:10:11;;;;;;;7.10;4.28;;;6.20;72.60;;;;;;4942222;29;20158;-74
2022/04/04 11:13:05;;;;;;;5.55;3.50;;;6.40;72.80;;;;;;4941903;29;20051;-74
2022/04/04 11:15:44;;;;;;;5.82;4.18;;;6.10;72.70;;;;;;4941731;29;20051;-74
2022/04/04 11:18:11;;;;;;;5.10;3.40;;;6.00;75.10;;;;;;4944286;29;20023;-74
2022/04/04 11:20:50;;;;;;;7.18;3.60;;;6.10;73.70;;;;;;4943616;29;20034;-74
2022/04/04 11:23:17;;;;;;;7.80;4.45;;;6.20;73.70;;;;;;4944424;29;20023;-74
2022/04/04 11:25:49;;;;;;;7.07;3.90;;;6.50;73.70;;;;;;4943489;29;20044;-74
2022/04/04 11:28:17;;;;;;;4.65;3.22;;;6.60;74.30;;;;;;4943391;29;20070;-74
2022/04/04 11:30:43;;;;;;;5.60;3.63;;;6.50;76.50;;;;;;4945727;29;20024;-73
2022/04/04 11:33:17;;;;;;;5.20;3.50;;;6.40;73.50;;;;;;4944091;29;20023;-73
2022/04/04 11:35:44;;;;;;;4.80;3.35;;;6.20;73.80;;;;;;4946175;29;20027;-74
2022/04/04 11:38:12;;;;;;;6.38;3.80;;;7.10;73.60;;;;;;4943505;29;20031;-74
2022/04/04 11:40:44;;;;;;;6.10;3.67;;;6.80;70.50;;;;;;4944050;29;20041;-74
2022/04/04 11:43:14;;;;;;;4.72;3.40;;;6.90;70.50;;;;;;4943018;29;20095;-75
2022/04/04 11:45:42;;;;;;;5.43;3.70;;;6.80;71.30;;;;;;4944601;29;20066;-74
2022/04/04 11:48:23;;;;;;;5.55;3.38;;;7.00;73.70;;;;;;4927497;29;20430;-74
2022/04/04 11:50:51;;;;;;;7.07;4.25;;;6.80;71.40;;;;;;4926554;29;20467;-74
2022/04/04 11:53:25;;;;;;;4.97;4.22;;;7.30;71.60;;;;;;4943231;29;20036;-74
2022/04/04 11:55:51;;;;;;;7.47;4.50;;;7.20;71.10;;;;;;4927800;29;20035;-74
2022/04/04 11:58:20;;;;;;;6.10;4.07;;;7.10;74.00;;;;;;4928120;29;20024;-74
2022/04/04 12:00:56;;;;;;;5.83;4.20;;;7.30;73.70;;;;;;4927147;29;20342;-73
2022/04/04 12:03:26;;;;;;;4.78;3.47;;;7.70;72.20;;;;;;4943529;29;20032;-74
2022/04/04 12:05:53;;;;;;;6.10;3.95;;;8.20;71.20;;;;;;4944260;29;20024;-74
2022/04/04 12:08:21;;;;;;;4.28;3.47;;;8.40;71.30;;;;;;4927211;29;20099;-74
2022/04/04 12:10:49;;;;;;;5.45;3.50;;;8.70;71.90;;;;;;4926817;29;20024;-74
2022/04/04 12:13:21;;;;;;;5.97;3.97;;;8.50;67.50;;;;;;4944128;29;20051;-73
2022/04/04 12:15:48;;;;;;;5.05;3.85;;;8.80;67.40;;;;;;4930338;29;20063;-74
2022/04/04 12:18:25;;;;;;;5.82;4.00;;;8.30;71.30;;;;;;4948534;29;20044;-74
2022/04/04 12:20:53;;;;;;;7.50;4.28;;;8.20;69.30;;;;;;4943780;29;20027;-74
2022/04/04 12:26:11;;;;;;;4.68;3.40;;;8.30;68.80;;;;;;4934324;29;20385;-79
2022/04/04 12:28:55;;;;;;;6.80;3.85;;;8.80;70.70;;;;;;4911435;29;20122;-79
2022/04/04 12:31:23;;;;;;;8.00;3.95;;;8.90;68.10;;;;;;4915574;29;20027;-73
2022/04/04 12:34:09;;;;;;;5.82;4.05;;;8.90;68.70;;;;;;4933554;29;20088;-73
2022/04/04 12:36:40;;;;;;;5.05;4.15;;;9.30;69.90;;;;;;4933095;29;20106;-73
2022/04/04 12:39:09;;;;;;;5.28;3.95;;;9.90;65.90;;;;;;4934383;29;20024;-73
2022/04/04 12:41:53;;;;;;;6.82;3.78;;;9.70;66.50;;;;;;4933704;29;20038;-73
2022/04/04 12:44:28;;;;;;;6.30;3.90;;;9.50;65.40;;;;;;4933689;29;20035;-73
2022/04/04 12:47:09;;;;;;;4.43;3.60;;;9.60;66.50;;;;;;4935851;29;20028;-73
2022/04/04 12:49:37;;;;;;;6.15;4.35;;;9.80;66.10;;;;;;4936021;29;20031;-74
2022/04/04 12:52:09;;;;;;;6.32;3.72;;;10.00;62.80;;;;;;4934651;29;20058;-73
2022/04/04 12:54:37;;;;;;;4.82;4.22;;;9.60;64.90;;;;;;4934774;29;20047;-73
2022/04/04 12:57:07;;;;;;;6.07;4.07;;;8.70;66.60;;;;;;4933276;29;20062;-73
2022/04/04 12:59:49;;;;;;;;;;;9.30;66.40;;;;;;4935289;29;20397;-73
2022/04/04 13:02:15;;;;;;;6.90;4.28;;;8.90;67.50;;;;;;4936282;29;19934;-73